Time;durP1;ratioP1;P1;durP2;ratioP2;P2;SDS_P1;SDS_P2;PMS_P1;PMS_P2;Temp;Humidity;BMP_temperature;BMP_pressure;BME280_temperature;BME280_humidity;BME280_pressure;Samples;Min_cycle;Max_cycle;Signal;HPM_P1;HPM_P2
2024/02/27 00:02:20;;;;;;;;;;;;;;;-128.00;-1.00;-1.00;106979;1251;1002218;-71
2024/02/27 00:04:48;;;;;;;;;;;;;;;-128.00;-1.00;-1.00;106938;1251;1002496;-71
2024/02/27 00:07:15;;;;;;;;;;;;;;;-128.00;-1.00;-1.00;106967;1251;1002116;-70
2024/02/27 00:09:44;;;;;;;;;;;;;;;-128.00;-1.00;-1.00;106943;1256;1002771;-70
2024/02/27 00:12:11;;;;;;;;;;;;;;;-128.00;-1.00;-1.00;106941;1251;1013287;-71
2024/02/27 00:14:39;;;;;;;;;;;;;;;-128.00;-1.00;-1.00;106630;1257;1002642;-71
2024/02/27 00:17:06;;;;;;;;;;;;;;;-128.00;-1.00;-1.00;106922;1251;1002422;-70
2024/02/27 00:19:34;;;;;;;;;;;;;;;-128.00;-1.00;-1.00;106592;1251;1002025;-70
2024/02/27 00:22:02;;;;;;;;;;;;;;;-128.00;-1.00;-1.00;107037;1251;1004550;-70
2024/02/27 00:24:29;;;;;;;;;;;;;;;-128.00;-1.00;-1.00;106967;1251;1002539;-70
2024/02/27 00:26:57;;;;;;;;;;;;;;;-128.00;-1.00;-1.00;106940;1251;1002288;-70
2024/02/27 00:29:25;;;;;;;;;;;;;;;-128.00;-1.00;-1.00;106946;1251;1002157;-70
2024/02/27 00:31:52;;;;;;;;;;;;;;;-128.00;-1.00;-1.00;106953;1251;1002539;-70
2024/02/27 00:34:20;;;;;;;;;;;;;;;-128.00;-1.00;-1.00;106906;1251;1002451;-71
2024/02/27 00:36:47;;;;;;;;;;;;;;;-128.00;-1.00;-1.00;106942;1251;1003123;-70
2024/02/27 00:39:15;;;;;;;;;;;;;;;-128.00;-1.00;-1.00;106913;1251;1002261;-70
2024/02/27 00:41:46;;;;;;;;;;;;;;;-128.00;-1.00;-1.00;106938;1251;1002196;-70
2024/02/27 00:44:14;;;;;;;;;;;;;;;-128.00;-1.00;-1.00;106912;1256;1011065;-70
2024/02/27 00:46:44;;;;;;;;;;;;;;;-128.00;-1.00;-1.00;106944;1251;1002254;-70
2024/02/27 00:49:12;;;;;;;;;;;;;;;-128.00;-1.00;-1.00;107015;1257;1012156;-70
2024/02/27 00:51:39;;;;;;;;;;;;;;;-128.00;-1.00;-1.00;106942;1251;1002288;-71
2024/02/27 00:54:07;;;;;;;;;;;;;;;-128.00;-1.00;-1.00;106875;1251;1002397;-70
2024/02/27 00:56:35;;;;;;;;;;;;;;;-128.00;-1.00;-1.00;106943;1251;1002457;-70
2024/02/27 00:59:03;;;;;;;;;;;;;;;-128.00;-1.00;-1.00;106914;1251;1012621;-70
2024/02/27 01:01:30;;;;;;;;;;;;;;;-128.00;-1.00;-1.00;106925;1251;1002346;-71
2024/02/27 01:03:57;;;;;;;;;;;;;;;-128.00;-1.00;-1.00;107001;1251;1002768;-70
2024/02/27 01:06:25;;;;;;;;;;;;;;;-128.00;-1.00;-1.00;106907;1256;1002402;-71
2024/02/27 01:08:53;;;;;;;;;;;;;;;-128.00;-1.00;-1.00;106904;1251;1002200;-70
2024/02/27 01:11:20;;;;;;;;;;;;;;;-128.00;-1.00;-1.00;106996;1251;1002529;-71
2024/02/27 01:13:48;;;;;;;;;;;;;;;-128.00;-1.00;-1.00;106815;1258;1001952;-70
2024/02/27 01:16:15;;;;;;;;;;;;;;;-128.00;-1.00;-1.00;106956;1251;1002517;-71
2024/02/27 01:18:43;;;;;;;;;;;;;;;-128.00;-1.00;-1.00;106900;1251;1002406;-70
2024/02/27 01:21:10;;;;;;;;;;;;;;;-128.00;-1.00;-1.00;106943;1251;1002322;-70
2024/02/27 01:23:38;;;;;;;;;;;;;;;-128.00;-1.00;-1.00;106932;1251;1002382;-70
2024/02/27 01:26:05;;;;;;;;;;;;;;;-128.00;-1.00;-1.00;106921;1251;1002018;-70
2024/02/27 01:28:33;;;;;;;;;;;;;;;-128.00;-1.00;-1.00;106974;1251;1002054;-70
2024/02/27 01:31:00;;;;;;;;;;;;;;;-128.00;-1.00;-1.00;106963;1253;1002660;-70
2024/02/27 01:33:28;;;;;;;;;;;;;;;-128.00;-1.00;-1.00;106731;1251;1002473;-70
2024/02/27 01:35:55;;;;;;;;;;;;;;;-128.00;-1.00;-1.00;106978;1251;1003314;-70
2024/02/27 01:38:23;;;;;;;;;;;;;;;-128.00;-1.00;-1.00;106892;1251;1002480;-69
2024/02/27 01:40:50;;;;;;;;;;;;;;;-128.00;-1.00;-1.00;107029;1251;1002297;-70
2024/02/27 01:43:21;;;;;;;;;;;;;;;-128.00;-1.00;-1.00;106909;1251;1002493;-70
2024/02/27 01:45:50;;;;;;;;;;;;;;;-128.00;-1.00;-1.00;106692;1251;1011373;-75
2024/02/27 01:48:18;;;;;;;;;;;;;;;-128.00;-1.00;-1.00;106944;1251;1013292;-71
2024/02/27 01:50:46;;;;;;;;;;;;;;;-128.00;-1.00;-1.00;106776;1254;1002131;-71
2024/02/27 01:53:13;;;;;;;;;;;;;;;-128.00;-1.00;-1.00;106639;1254;1002353;-70
2024/02/27 01:55:42;;;;;;;;;;;;;;;-128.00;-1.00;-1.00;106617;1254;1001911;-70
2024/02/27 01:58:10;;;;;;;;;;;;;;;-128.00;-1.00;-1.00;106668;1254;1010501;-71
2024/02/27 02:00:37;;;;;;;;;;;;;;;-128.00;-1.00;-1.00;106599;1257;1013002;-71
2024/02/27 02:03:06;;;;;;;;;;;;;;;-128.00;-1.00;-1.00;106511;1260;1003203;-70
2024/02/27 02:05:34;;;;;;;;;;;;;;;-128.00;-1.00;-1.00;106588;1257;1012967;-71
2024/02/27 02:08:02;;;;;;;;;;;;;;;-128.00;-1.00;-1.00;106526;1256;1002354;-70
2024/02/27 02:10:29;;;;;;;;;;;;;;;-128.00;-1.00;-1.00;106660;1255;1002699;-70
2024/02/27 02:12:57;;;;;;;;;;;;;;;-128.00;-1.00;-1.00;106452;1257;1002380;-70
2024/02/27 02:15:24;;;;;;;;;;;;;;;-128.00;-1.00;-1.00;106558;1256;1002322;-69
2024/02/27 02:17:52;;;;;;;;;;;;;;;-128.00;-1.00;-1.00;106569;1256;1002314;-71
2024/02/27 02:20:20;;;;;;;;;;;;;;;-128.00;-1.00;-1.00;106393;1257;1010178;-68
2024/02/27 02:22:47;;;;;;;;;;;;;;;-128.00;-1.00;-1.00;106492;1253;1001940;-70
2024/02/27 02:25:16;;;;;;;;;;;;;;;-128.00;-1.00;-1.00;106943;1254;1002133;-69
2024/02/27 02:27:43;;;;;;;;;;;;;;;-128.00;-1.00;-1.00;106903;1252;1011770;-70
2024/02/27 02:30:12;;;;;;;;;;;;;;;-128.00;-1.00;-1.00;106952;1254;1002742;-70
2024/02/27 02:32:46;;;;;;;;;;;;;;;-128.00;-1.00;-1.00;106991;1254;1009836;-70
2024/02/27 02:35:14;;;;;;;;;;;;;;;-128.00;-1.00;-1.00;106938;1253;1010523;-70
2024/02/27 02:37:42;;;;;;;;;;;;;;;-128.00;-1.00;-1.00;106949;1253;1002497;-70
2024/02/27 02:40:10;;;;;;;;;;;;;;;-128.00;-1.00;-1.00;106951;1252;1002236;-70
2024/02/27 02:42:38;;;;;;;;;;;;;;;-128.00;-1.00;-1.00;106973;1253;1002555;-70
2024/02/27 02:45:06;;;;;;;;;;;;;;;-128.00;-1.00;-1.00;106564;1253;1011106;-70
2024/02/27 02:47:33;;;;;;;;;;;;;;;-128.00;-1.00;-1.00;106997;1254;1001643;-69
2024/02/27 02:50:01;;;;;;;;;;;;;;;-128.00;-1.00;-1.00;106966;1253;1002468;-70
2024/02/27 02:52:29;;;;;;;;;;;;;;;-128.00;-1.00;-1.00;106780;1254;1002865;-70
2024/02/27 02:54:57;;;;;;;;;;;;;;;-128.00;-1.00;-1.00;106982;1251;1002100;-69
2024/02/27 02:57:24;;;;;;;;;;;;;;;-128.00;-1.00;-1.00;106874;1251;1002447;-70
2024/02/27 02:59:52;;;;;;;;;;;;;;;-128.00;-1.00;-1.00;106905;1251;1002090;-69
2024/02/27 03:02:19;;;;;;;;;;;;;;;-128.00;-1.00;-1.00;106877;1254;1001942;-70
2024/02/27 03:04:47;;;;;;;;;;;;;;;-128.00;-1.00;-1.00;106963;1253;1002659;-69
2024/02/27 03:07:14;;;;;;;;;;;;;;;-128.00;-1.00;-1.00;107032;1254;1002443;-69
2024/02/27 03:09:43;;;;;;;;;;;;;;;-128.00;-1.00;-1.00;106920;1255;1002015;-69
2024/02/27 03:12:11;;;;;;;;;;;;;;;-128.00;-1.00;-1.00;106906;1254;1010646;-69
2024/02/27 03:14:45;;;;;;;;;;;;;;;-128.00;-1.00;-1.00;106926;1254;1002578;-69
2024/02/27 03:17:13;;;;;;;;;;;;;;;-128.00;-1.00;-1.00;106886;1254;1012860;-70
2024/02/27 03:19:41;;;;;;;;;;;;;;;-128.00;-1.00;-1.00;106900;1253;1001644;-70
2024/02/27 03:22:09;;;;;;;;;;;;;;;-128.00;-1.00;-1.00;106901;1254;1002580;-70
2024/02/27 03:24:37;;;;;;;;;;;;;;;-128.00;-1.00;-1.00;106572;1254;1002677;-70
2024/02/27 03:27:04;;;;;;;;;;;;;;;-128.00;-1.00;-1.00;106984;1254;1002730;-70
2024/02/27 03:29:32;;;;;;;;;;;;;;;-128.00;-1.00;-1.00;106894;1254;1002537;-70
2024/02/27 03:31:59;;;;;;;;;;;;;;;-128.00;-1.00;-1.00;106972;1253;1002726;-70
2024/02/27 03:34:27;;;;;;;;;;;;;;;-128.00;-1.00;-1.00;106592;1253;1002572;-70
2024/02/27 03:36:55;;;;;;;;;;;;;;;-128.00;-1.00;-1.00;106981;1252;1002299;-71
2024/02/27 03:39:22;;;;;;;;;;;;;;;-128.00;-1.00;-1.00;106869;1253;1002125;-71
2024/02/27 03:41:50;;;;;;;;;;;;;;;-128.00;-1.00;-1.00;106958;1252;1002781;-70
2024/02/27 03:44:17;;;;;;;;;;;;;;;-128.00;-1.00;-1.00;106942;1254;1002403;-70
2024/02/27 03:46:45;;;;;;;;;;;;;;;-128.00;-1.00;-1.00;106974;1253;1002114;-70
2024/02/27 03:49:12;;;;;;;;;;;;;;;-128.00;-1.00;-1.00;106943;1254;1002401;-69
2024/02/27 03:51:40;;;;;;;;;;;;;;;-128.00;-1.00;-1.00;106891;1253;1003492;-70
2024/02/27 03:54:08;;;;;;;;;;;;;;;-128.00;-1.00;-1.00;106901;1254;1002507;-71
2024/02/27 03:56:35;;;;;;;;;;;;;;;-128.00;-1.00;-1.00;106952;1253;1002161;-70
2024/02/27 03:59:03;;;;;;;;;;;;;;;-128.00;-1.00;-1.00;106929;1253;1002257;-70
2024/02/27 04:01:30;;;;;;;;;;;;;;;-128.00;-1.00;-1.00;107146;1251;1002081;-70
2024/02/27 04:03:58;;;;;;;;;;;;;;;-128.00;-1.00;-1.00;106985;1251;1002972;-70
2024/02/27 04:06:25;;;;;;;;;;;;;;;-128.00;-1.00;-1.00;106954;1251;1002363;-71
2024/02/27 04:08:53;;;;;;;;;;;;;;;-128.00;-1.00;-1.00;106956;1251;1002400;-70
2024/02/27 04:11:20;;;;;;;;;;;;;;;-128.00;-1.00;-1.00;106895;1251;1003139;-70
2024/02/27 04:13:48;;;;;;;;;;;;;;;-128.00;-1.00;-1.00;106978;1251;1002859;-70
2024/02/27 04:16:15;;;;;;;;;;;;;;;-128.00;-1.00;-1.00;106957;1251;1002964;-71
2024/02/27 04:18:42;;;;;;;;;;;;;;;-128.00;-1.00;-1.00;106794;1251;1002426;-71
2024/02/27 04:21:10;;;;;;;;;;;;;;;-128.00;-1.00;-1.00;106748;1251;1002296;-71
2024/02/27 04:23:38;;;;;;;;;;;;;;;-128.00;-1.00;-1.00;106916;1251;1002309;-70
2024/02/27 04:26:05;;;;;;;;;;;;;;;-128.00;-1.00;-1.00;106926;1251;1002710;-70
2024/02/27 04:28:33;;;;;;;;;;;;;;;-128.00;-1.00;-1.00;106946;1251;1002346;-70
2024/02/27 04:31:01;;;;;;;;;;;;;;;-128.00;-1.00;-1.00;106968;1251;1002141;-70
2024/02/27 04:33:28;;;;;;;;;;;;;;;-128.00;-1.00;-1.00;106915;1251;1002140;-71
2024/02/27 04:35:56;;;;;;;;;;;;;;;-128.00;-1.00;-1.00;106906;1251;1002322;-70
2024/02/27 04:38:24;;;;;;;;;;;;;;;-128.00;-1.00;-1.00;106964;1251;1002908;-70
2024/02/27 04:40:51;;;;;;;;;;;;;;;-128.00;-1.00;-1.00;106940;1251;1002445;-70
2024/02/27 04:43:19;;;;;;;;;;;;;;;-128.00;-1.00;-1.00;106924;1253;1002538;-70
2024/02/27 04:45:46;;;;;;;;;;;;;;;-128.00;-1.00;-1.00;106933;1251;1002489;-70
2024/02/27 04:48:13;;;;;;;;;;;;;;;-128.00;-1.00;-1.00;106944;1251;1001998;-70
2024/02/27 04:50:41;;;;;;;;;;;;;;;-128.00;-1.00;-1.00;106899;1251;1002883;-70
2024/02/27 04:53:09;;;;;;;;;;;;;;;-128.00;-1.00;-1.00;106914;1251;1002459;-70
2024/02/27 04:55:36;;;;;;;;;;;;;;;-128.00;-1.00;-1.00;106877;1253;1002378;-70
2024/02/27 04:58:04;;;;;;;;;;;;;;;-128.00;-1.00;-1.00;106952;1253;1002725;-70
2024/02/27 05:00:31;;;;;;;;;;;;;;;-128.00;-1.00;-1.00;106860;1253;1002234;-70
2024/02/27 05:02:59;;;;;;;;;;;;;;;-128.00;-1.00;-1.00;106947;1253;1002420;-70
2024/02/27 05:05:27;;;;;;;;;;;;;;;-128.00;-1.00;-1.00;107018;1252;1002359;-70
2024/02/27 05:07:54;;;;;;;;;;;;;;;-128.00;-1.00;-1.00;106882;1253;1002014;-70
2024/02/27 05:10:22;;;;;;;;;;;;;;;-128.00;-1.00;-1.00;107013;1252;1002352;-70
2024/02/27 05:12:49;;;;;;;;;;;;;;;-128.00;-1.00;-1.00;106884;1253;1002657;-69
2024/02/27 05:15:17;;;;;;;;;;;;;;;-128.00;-1.00;-1.00;106580;1254;1002481;-70
2024/02/27 05:17:44;;;;;;;;;;;;;;;-128.00;-1.00;-1.00;106892;1253;1002037;-69
2024/02/27 05:20:12;;;;;;;;;;;;;;;-128.00;-1.00;-1.00;106931;1253;1002719;-71
2024/02/27 05:22:39;;;;;;;;;;;;;;;-128.00;-1.00;-1.00;106964;1253;1002638;-70
2024/02/27 05:25:07;;;;;;;;;;;;;;;-128.00;-1.00;-1.00;106918;1253;1002997;-70
2024/02/27 05:27:35;;;;;;;;;;;;;;;-128.00;-1.00;-1.00;106952;1253;1002267;-70
2024/02/27 05:30:05;;;;;;;;;;;;;;;-128.00;-1.00;-1.00;106849;1253;1002696;-70
2024/02/27 05:32:33;;;;;;;;;;;;;;;-128.00;-1.00;-1.00;106883;1257;1012982;-70
2024/02/27 05:35:00;;;;;;;;;;;;;;;-128.00;-1.00;-1.00;106796;1252;1002831;-70
2024/02/27 05:37:29;;;;;;;;;;;;;;;-128.00;-1.00;-1.00;106915;1253;1002669;-71
2024/02/27 05:39:56;;;;;;;;;;;;;;;-128.00;-1.00;-1.00;106942;1253;1010701;-70
2024/02/27 05:42:24;;;;;;;;;;;;;;;-128.00;-1.00;-1.00;106998;1252;1002195;-70
2024/02/27 05:44:52;;;;;;;;;;;;;;;-128.00;-1.00;-1.00;106921;1252;1002341;-70
2024/02/27 05:47:19;;;;;;;;;;;;;;;-128.00;-1.00;-1.00;106888;1254;1012091;-69
2024/02/27 05:49:47;;;;;;;;;;;;;;;-128.00;-1.00;-1.00;106949;1253;1002506;-71
2024/02/27 05:52:14;;;;;;;;;;;;;;;-128.00;-1.00;-1.00;106871;1254;1002443;-71
2024/02/27 05:54:42;;;;;;;;;;;;;;;-128.00;-1.00;-1.00;106949;1253;1002429;-71
2024/02/27 05:57:11;;;;;;;;;;;;;;;-128.00;-1.00;-1.00;106893;1253;1002572;-71
2024/02/27 05:59:38;;;;;;;;;;;;;;;-128.00;-1.00;-1.00;106904;1253;1013195;-71
2024/02/27 06:02:06;;;;;;;;;;;;;;;-128.00;-1.00;-1.00;106956;1251;1002636;-71
2024/02/27 06:04:34;;;;;;;;;;;;;;;-128.00;-1.00;-1.00;106876;1251;1002465;-71
2024/02/27 06:07:01;;;;;;;;;;;;;;;-128.00;-1.00;-1.00;106955;1251;1001865;-71
2024/02/27 06:09:29;;;;;;;;;;;;;;;-128.00;-1.00;-1.00;106956;1251;1002378;-71
2024/02/27 06:11:56;;;;;;;;;;;;;;;-128.00;-1.00;-1.00;106916;1256;1001939;-71
2024/02/27 06:14:26;;;;;;;;;;;;;;;-128.00;-1.00;-1.00;106867;1251;1010246;-70
2024/02/27 06:16:53;;;;;;;;;;;;;;;-128.00;-1.00;-1.00;106916;1251;1002156;-71
2024/02/27 06:19:26;;;;;;;;;;;;;;;-128.00;-1.00;-1.00;106946;1250;1002094;-70
2024/02/27 06:22:14;;;;;;;;;;;;;;;-128.00;-1.00;-1.00;106812;1251;1012868;-71
2024/02/27 06:24:42;;;;;;;;;;;;;;;-128.00;-1.00;-1.00;107026;1251;1012505;-72
2024/02/27 06:27:10;;;;;;;;;;;;;;;-128.00;-1.00;-1.00;106967;1251;1002262;-72
2024/02/27 06:29:38;;;;;;;;;;;;;;;-128.00;-1.00;-1.00;106928;1251;1010221;-71
2024/02/27 06:32:09;;;;;;;;;;;;;;;-128.00;-1.00;-1.00;107019;1251;1002436;-70
2024/02/27 06:34:37;;;;;;;;;;;;;;;-128.00;-1.00;-1.00;106940;1251;1012046;-71
2024/02/27 06:37:05;;;;;;;;;;;;;;;-128.00;-1.00;-1.00;106688;1251;1002529;-72
2024/02/27 06:39:33;;;;;;;;;;;;;;;-128.00;-1.00;-1.00;106929;1251;1002442;-71
2024/02/27 06:42:00;;;;;;;;;;;;;;;-128.00;-1.00;-1.00;106932;1251;1002053;-72
2024/02/27 06:44:28;;;;;;;;;;;;;;;-128.00;-1.00;-1.00;106922;1251;1002253;-71
2024/02/27 06:46:55;;;;;;;;;;;;;;;-128.00;-1.00;-1.00;106750;1250;1002274;-71
2024/02/27 06:49:23;;;;;;;;;;;;;;;-128.00;-1.00;-1.00;107025;1251;1002661;-71
2024/02/27 06:51:51;;;;;;;;;;;;;;;-128.00;-1.00;-1.00;106950;1251;1002833;-72
2024/02/27 06:54:18;;;;;;;;;;;;;;;-128.00;-1.00;-1.00;106934;1251;1003182;-71
2024/02/27 06:56:46;;;;;;;;;;;;;;;-128.00;-1.00;-1.00;107001;1253;1002568;-72
2024/02/27 06:59:13;;;;;;;;;;;;;;;-128.00;-1.00;-1.00;106890;1253;1002435;-72
2024/02/27 07:01:41;;;;;;;;;;;;;;;-128.00;-1.00;-1.00;107028;1251;1002493;-71
2024/02/27 07:04:08;;;;;;;;;;;;;;;-128.00;-1.00;-1.00;106936;1251;1002308;-71
2024/02/27 07:06:36;;;;;;;;;;;;;;;-128.00;-1.00;-1.00;106959;1251;1002567;-71
2024/02/27 07:09:04;;;;;;;;;;;;;;;-128.00;-1.00;-1.00;106928;1251;1002421;-71
2024/02/27 07:11:33;;;;;;;;;;;;;;;-128.00;-1.00;-1.00;106906;1251;1002664;-72
2024/02/27 07:14:03;;;;;;;;;;;;;;;-128.00;-1.00;-1.00;107054;1251;1012375;-72
2024/02/27 07:16:31;;;;;;;;;;;;;;;-128.00;-1.00;-1.00;106922;1251;1010257;-71
2024/02/27 07:18:58;;;;;;;;;;;;;;;-128.00;-1.00;-1.00;106879;1251;1002406;-71
2024/02/27 07:21:26;;;;;;;;;;;;;;;-128.00;-1.00;-1.00;106968;1251;1002292;-71
2024/02/27 07:23:53;;;;;;;;;;;;;;;-128.00;-1.00;-1.00;106896;1253;1002480;-71
2024/02/27 07:26:21;;;;;;;;;;;;;;;-128.00;-1.00;-1.00;107026;1251;1001746;-70
2024/02/27 07:28:48;;;;;;;;;;;;;;;-128.00;-1.00;-1.00;106917;1251;1002984;-72
2024/02/27 07:31:18;;;;;;;;;;;;;;;-128.00;-1.00;-1.00;106973;1251;1002558;-71
2024/02/27 07:33:46;;;;;;;;;;;;;;;-128.00;-1.00;-1.00;106956;1251;1013043;-71
2024/02/27 07:36:13;;;;;;;;;;;;;;;-128.00;-1.00;-1.00;106871;1251;1002406;-71
2024/02/27 07:38:41;;;;;;;;;;;;;;;-128.00;-1.00;-1.00;107001;1251;1001869;-71
2024/02/27 07:41:09;;;;;;;;;;;;;;;-128.00;-1.00;-1.00;106908;1251;1002294;-72
2024/02/27 07:43:36;;;;;;;;;;;;;;;-128.00;-1.00;-1.00;106907;1251;1002168;-72
2024/02/27 07:46:04;;;;;;;;;;;;;;;-128.00;-1.00;-1.00;107077;1251;1002581;-73
2024/02/27 07:48:31;;;;;;;;;;;;;;;-128.00;-1.00;-1.00;106945;1251;1002635;-71
2024/02/27 07:50:59;;;;;;;;;;;;;;;-128.00;-1.00;-1.00;106998;1251;1002456;-72
2024/02/27 07:53:26;;;;;;;;;;;;;;;-128.00;-1.00;-1.00;106899;1251;1002670;-72
2024/02/27 07:55:54;;;;;;;;;;;;;;;-128.00;-1.00;-1.00;106951;1254;1002081;-69
2024/02/27 07:58:21;;;;;;;;;;;;;;;-128.00;-1.00;-1.00;106912;1252;1002185;-71
2024/02/27 08:00:49;;;;;;;;;;;;;;;-128.00;-1.00;-1.00;106903;1253;1002834;-72
2024/02/27 08:03:17;;;;;;;;;;;;;;;-128.00;-1.00;-1.00;106783;1251;1002742;-72
2024/02/27 08:05:44;;;;;;;;;;;;;;;-128.00;-1.00;-1.00;106741;1256;1002329;-72
2024/02/27 08:08:13;;;;;;;;;;;;;;;-128.00;-1.00;-1.00;107055;1251;1002629;-71
2024/02/27 08:10:41;;;;;;;;;;;;;;;-128.00;-1.00;-1.00;107047;1251;1013254;-73
2024/02/27 08:15:29;;;;;;;;;;;;;;;10.57;43.82;99941.09;106131;1292;598556;-69
2024/02/27 08:17:57;;;;;;;;;;;;;;;10.64;44.02;99940.95;106063;1267;58763;-71
2024/02/27 08:20:25;;;;;;;;;;;;;;;10.37;44.39;99941.24;104911;1266;62298;-70
2024/02/27 08:22:52;;;;;;;;;;;;;;;10.28;44.94;99949.23;104948;1270;70574;-76
2024/02/27 08:25:20;;;;;;;;;;;;;;;10.30;44.63;99948.15;104873;1271;68933;-70
2024/02/27 08:27:48;;;;;;;;;;;;;;;10.48;44.81;99948.58;104819;1267;72435;-71
2024/02/27 08:30:16;;;;;;;;;;;;;;;10.24;44.83;99946.06;104741;1271;192048;-73
2024/02/27 08:32:44;;;;;;;;;;;;;;;10.10;45.32;99947.69;104980;1263;60481;-73
2024/02/27 08:35:14;;;;;;;;;;;;;;;10.35;45.05;99945.83;104860;1272;72293;-73
2024/02/27 08:37:41;;;;;;;;;;;;;;;10.26;45.03;99948.29;105181;1268;68828;-73
2024/02/27 08:40:09;;;;;;;;;;;;;;;10.22;44.98;99946.52;105145;1267;72781;-72
2024/02/27 08:42:36;;;;;;;;;;;;;;;10.32;44.70;99946.84;105049;1268;60117;-71
2024/02/27 08:45:05;;;;;;;;;;;;;;;10.12;44.88;99940.84;104832;1265;60817;-74
2024/02/27 08:47:33;;;;;;;;;;;;;;;9.83;45.41;99940.27;104888;1267;72809;-72
2024/02/27 08:50:04;;;;;;;;;;;;;;;9.88;45.52;99936.55;104765;1275;67602;-74
2024/02/27 08:52:31;;;;;;;;;;;;;;;9.97;45.64;99937.46;105213;1260;73043;-75
2024/02/27 08:54:59;;;;;;;;;;;;;;;9.98;45.51;99939.73;105369;1257;59724;-73
2024/02/27 08:57:27;;;;;;;;;;;;;;;10.02;45.75;99945.55;105591;1257;59887;-71
2024/02/27 08:59:54;;;;;;;;;;;;;;;10.18;45.46;99954.65;105516;1257;73224;-72
2024/02/27 09:02:23;;;;;;;;;;;;;;;10.35;45.13;99947.05;105653;1257;71278;-73
2024/02/27 09:04:51;;;;;;;;;;;;;;;10.34;45.27;99949.42;105405;1257;72833;-70
2024/02/27 09:07:19;;;;;;;;;;;;;;;10.48;45.10;99945.00;105524;1257;59622;-73
2024/02/27 09:09:47;;;;;;;;;;;;;;;10.44;45.02;99942.39;105457;1257;59914;-73
2024/02/27 09:12:16;;;;;;;;;;;;;;;10.41;45.20;99953.17;105622;1257;72227;-71
2024/02/27 09:14:44;;;;;;;;;;;;;;;10.78;44.57;99953.04;105509;1258;67085;-72
2024/02/27 09:17:12;;;;;;;;;;;;;;;10.80;44.71;99950.80;105628;1254;71755;-73
2024/02/27 09:19:40;;;;;;;;;;;;;;;10.96;44.29;99952.38;105499;1259;59537;-71
2024/02/27 09:22:07;;;;;;;;;;;;;;;11.02;44.39;99953.71;105184;1262;61344;-71
2024/02/27 09:24:35;;;;;;;;;;;;;;;10.96;44.73;99952.06;105475;1261;72775;-71
2024/02/27 09:27:03;;;;;;;;;;;;;;;11.00;44.79;99950.46;105457;1262;69388;-72
2024/02/27 09:29:33;;;;;;;;;;;;;;;11.16;44.61;99955.84;105200;1260;71813;-72
2024/02/27 09:32:00;;;;;;;;;;;;;;;11.54;43.75;99954.03;105509;1262;59794;-75
2024/02/27 09:34:28;;;;;;;;;;;;;;;11.98;43.32;99951.88;105510;1256;59660;-72
2024/02/27 09:36:56;;;;;;;;;;;;;;;12.45;42.72;99954.30;105436;1263;73077;-72
2024/02/27 09:39:23;;;;;;;;;;;;;;;12.83;42.39;99956.00;105545;1262;67510;-74
2024/02/27 09:41:51;;;;;;;;;;;;;;;13.17;41.72;99953.36;105165;1257;73006;-71
2024/02/27 09:44:19;;;;;;;;;;;;;;;13.33;41.61;99952.29;105547;1262;59567;-71
2024/02/27 09:46:47;;;;;;;;;;;;;;;13.55;41.04;99953.85;105241;1262;59625;-78
2024/02/27 09:49:15;;;;;;;;;;;;;;;13.50;40.78;99955.07;105199;1257;73717;-72
2024/02/27 09:52:03;;;;;;;;;;;;;;;13.86;40.56;99955.29;105779;1254;69102;-73
2024/02/27 09:54:31;;;;;;;;;;;;;;;14.08;40.17;99955.09;105716;1254;73070;-74
2024/02/27 09:56:58;;;;;;;;;;;;;;;13.95;40.40;99955.70;105786;1259;59675;-75
2024/02/27 09:59:26;;;;;;;;;;;;;;;14.04;40.08;99957.02;105764;1259;59685;-75
2024/02/27 10:01:54;;;;;;;;;;;;;;;14.34;39.87;99964.90;105720;1258;73067;-75
2024/02/27 10:04:22;;;;;;;;;;;;;;;14.06;39.82;99968.36;105641;1253;67623;-73
2024/02/27 10:06:51;;;;;;;;;;;;;;;13.80;40.25;99964.13;105559;1254;72312;-78
2024/02/27 10:09:19;;;;;;;;;;;;;;;13.87;40.12;99962.10;105773;1260;59650;-73
2024/02/27 10:11:47;;;;;;;;;;;;;;;14.52;39.63;99963.63;105726;1254;59663;-70
2024/02/27 10:14:16;;;;;;;;;;;;;;;14.47;38.57;99965.50;105701;1254;72021;-72
2024/02/27 10:16:43;;;;;;;;;;;;;;;14.06;38.52;99965.11;105551;1259;68043;-73
2024/02/27 10:19:11;;;;;;;;;;;;;;;13.95;38.90;99962.66;105729;1260;72147;-75
2024/02/27 10:21:38;;;;;;;;;;;;;;;13.84;38.89;99954.54;105502;1254;59708;-71
2024/02/27 10:24:06;;;;;;;;;;;;;;;13.66;38.77;99961.23;105381;1262;60047;-73
2024/02/27 10:26:33;;;;;;;;;;;;;;;13.92;38.79;99963.95;105669;1254;72225;-75
2024/02/27 10:29:01;;;;;;;;;;;;;;;14.06;38.40;99959.98;105318;1254;68316;-78
2024/02/27 10:31:29;;;;;;;;;;;;;;;13.94;38.82;99958.50;105724;1254;71738;-76
2024/02/27 10:33:57;;;;;;;;;;;;;;;14.07;38.57;99961.98;105874;1260;60371;-74
2024/02/27 10:36:25;;;;;;;;;;;;;;;14.08;38.54;99961.39;105566;1262;59546;-80
2024/02/27 10:38:54;;;;;;;;;;;;;;;14.10;38.49;99962.10;105791;1260;73117;-76
2024/02/27 10:41:22;;;;;;;;;;;;;;;14.33;37.78;99962.02;105746;1258;67720;-74
2024/02/27 10:43:50;;;;;;;;;;;;;;;14.62;37.92;99962.55;105653;1259;72814;-72
2024/02/27 10:46:17;;;;;;;;;;;;;;;14.80;37.43;99960.88;105616;1254;59604;-73
2024/02/27 10:48:45;;;;;;;;;;;;;;;14.59;37.08;99966.61;105370;1255;60000;-72
2024/02/27 10:51:13;;;;;;;;;;;;;;;14.61;37.25;99961.58;105741;1260;73571;-73
2024/02/27 10:53:42;;;;;;;;;;;;;;;14.44;37.60;99954.81;105808;1254;68629;-71
2024/02/27 10:56:09;;;;;;;;;;;;;;;14.66;37.99;99963.46;105422;1260;72756;-72
2024/02/27 10:58:37;;;;;;;;;;;;;;;15.05;37.24;99959.77;105690;1260;59758;-71
2024/02/27 11:01:06;;;;;;;;;;;;;;;15.03;36.29;99961.06;105759;1260;59964;-72
2024/02/27 11:03:36;;;;;;;;;;;;;;;14.62;36.79;99955.52;105730;1254;73668;-72
2024/02/27 11:06:03;;;;;;;;;;;;;;;14.68;36.91;99953.91;105521;1260;68671;-77
2024/02/27 11:08:31;;;;;;;;;;;;;;;15.34;36.93;99958.02;105709;1254;70883;-71
2024/02/27 11:11:01;;;;;;;;;;;;;;;15.29;35.62;99955.05;105664;1255;60443;-76
2024/02/27 11:13:29;;;;;;;;;;;;;;;14.90;35.72;99953.23;105830;1259;59968;-72
2024/02/27 11:15:57;;;;;;;;;;;;;;;14.86;35.85;99956.08;105558;1257;71745;-71
2024/02/27 11:18:25;;;;;;;;;;;;;;;14.79;36.02;99955.59;105668;1257;68607;-69
2024/02/27 11:20:53;;;;;;;;;;;;;;;14.91;35.38;99952.86;105565;1260;72734;-73
2024/02/27 11:23:20;;;;;;;;;;;;;;;15.04;35.35;99953.77;105235;1263;60135;-73
2024/02/27 11:25:48;;;;;;;;;;;;;;;15.16;35.27;99953.04;105186;1257;59625;-72
2024/02/27 11:28:16;;;;;;;;;;;;;;;15.22;35.32;99952.20;105588;1256;71974;-71
2024/02/27 11:30:43;;;;;;;;;;;;;;;15.14;34.75;99956.98;105524;1260;66800;-75
2024/02/27 11:33:11;;;;;;;;;;;;;;;15.27;34.40;99955.55;105615;1258;72728;-74
2024/02/27 11:35:39;;;;;;;;;;;;;;;15.13;34.27;99954.07;105520;1258;59628;-72
2024/02/27 11:38:07;;;;;;;;;;;;;;;15.13;34.54;99956.13;105458;1270;59539;-74
2024/02/27 11:40:45;;;;;;;;;;;;;;;15.09;34.83;99955.70;105506;1257;73832;-72
2024/02/27 11:43:14;;;;;;;;;;;;;;;15.34;34.48;99953.73;105301;1257;68644;-73
2024/02/27 11:45:41;;;;;;;;;;;;;;;15.53;34.63;99953.14;105703;1257;71644;-73
2024/02/27 11:48:09;;;;;;;;;;;;;;;15.52;34.03;99952.11;105597;1258;59611;-77
2024/02/27 11:50:38;;;;;;;;;;;;;;;15.58;33.77;99952.90;105760;1256;59845;-71
2024/02/27 11:53:20;;;;;;;;;;;;;;;15.56;33.80;99956.70;105694;1254;72189;-72
2024/02/27 11:55:50;;;;;;;;;;;;;;;15.66;33.50;99951.14;105636;1260;68448;-71
2024/02/27 11:58:18;;;;;;;;;;;;;;;15.70;33.86;99948.69;105508;1264;72819;-70
2024/02/27 12:00:45;;;;;;;;;;;;;;;15.99;33.63;99950.57;105683;1259;59733;-70
2024/02/27 12:03:14;;;;;;;;;;;;;;;15.86;33.21;99950.27;105278;1260;59797;-72
2024/02/27 12:05:43;;;;;;;;;;;;;;;15.67;33.42;99939.13;105521;1259;71991;-71
2024/02/27 12:08:11;;;;;;;;;;;;;;;15.52;33.11;99948.50;105493;1262;67986;-74
2024/02/27 12:10:39;;;;;;;;;;;;;;;15.82;33.35;99952.21;105584;1260;72046;-71
2024/02/27 12:13:06;;;;;;;;;;;;;;;16.12;32.74;99949.77;105318;1257;60311;-71
2024/02/27 12:15:34;;;;;;;;;;;;;;;15.92;32.88;99946.21;105336;1262;59557;-73
2024/02/27 12:18:01;;;;;;;;;;;;;;;15.89;31.81;99944.45;105616;1260;72196;-73
2024/02/27 12:20:29;;;;;;;;;;;;;;;15.63;31.60;99945.05;105608;1262;69135;-73
2024/02/27 12:22:57;;;;;;;;;;;;;;;15.50;31.62;99944.21;109102;1256;71540;-72
2024/02/27 12:25:24;;;;;;;;;;;;;;;15.41;31.71;99939.80;109037;1257;63210;-71
2024/02/27 12:27:53;;;;;;;;;;;;;;;15.80;31.76;99942.70;106105;1260;60392;-69
2024/02/27 12:30:22;;;;;;;;;;;;;;;15.76;32.71;99938.88;105484;1261;73922;-70
2024/02/27 12:32:51;;;;;;;;;;;;;;;15.44;34.44;99935.59;105330;1265;68951;-75
2024/02/27 12:35:19;;;;;;;;;;;;;;;15.60;34.90;99935.69;105195;1267;72945;-72
2024/02/27 12:37:48;;;;;;;;;;;;;;;15.69;34.74;99939.50;105257;1266;60572;-77